Time;durP1;ratioP1;P1;durP2;ratioP2;P2;SDS_P1;SDS_P2;PMS_P1;PMS_P2;Temp;Humidity;BMP_temperature;BMP_pressure;BME280_temperature;BME280_humidity;BME280_pressure;Samples;Min_cycle;Max_cycle;Signal;HPM_P1;HPM_P2
2024/01/26 00:00:54;;;;;;;9.15;4.32;;;;;;;5.75;52.81;100027.88;5127390;28;20111;-71
2024/01/26 00:03:21;;;;;;;11.55;5.13;;;;;;;5.71;52.91;100019.19;5127616;28;20051;-71
2024/01/26 00:05:48;;;;;;;10.55;4.20;;;;;;;5.64;53.01;100028.13;5127602;28;20043;-71
2024/01/26 00:08:15;;;;;;;9.75;3.97;;;;;;;5.66;53.05;100028.09;5126869;28;20101;-70
2024/01/26 00:10:41;;;;;;;9.50;4.07;;;;;;;5.58;53.27;100019.53;5127230;28;20250;-71
2024/01/26 00:13:10;;;;;;;8.02;3.90;;;;;;;5.60;53.25;100015.97;5127191;28;20049;-70
2024/01/26 00:15:38;;;;;;;12.73;4.78;;;;;;;5.56;53.33;100021.34;5127461;28;20050;-70
2024/01/26 00:18:05;;;;;;;9.50;4.65;;;;;;;5.52;53.47;100012.66;5127048;28;20047;-71
2024/01/26 00:20:31;;;;;;;9.57;4.55;;;;;;;5.32;53.58;99986.84;5127367;28;20292;-70
2024/01/26 00:22:58;;;;;;;8.80;4.13;;;;;;;5.52;53.49;99999.50;5126786;28;20085;-70
2024/01/26 00:25:25;;;;;;;11.48;4.22;;;;;;;5.57;53.50;100009.91;5126971;28;20081;-70
2024/01/26 00:27:52;;;;;;;9.27;4.20;;;;;;;5.46;53.72;99999.66;5126914;28;20092;-71
2024/01/26 00:30:18;;;;;;;14.25;4.65;;;;;;;5.51;53.57;99994.28;5126861;28;20153;-69
2024/01/26 00:32:46;;;;;;;12.32;4.45;;;;;;;5.44;53.82;100002.31;5126994;28;20048;-70
2024/01/26 00:35:13;;;;;;;11.85;4.68;;;;;;;5.43;54.08;100002.34;5127255;28;20043;-69
2024/01/26 00:37:40;;;;;;;10.25;4.35;;;;;;;5.42;54.00;100009.38;5126697;28;20043;-70
2024/01/26 00:40:08;;;;;;;10.25;4.35;;;;;;;5.16;54.39;99974.97;5126399;28;20051;-71
2024/01/26 00:42:34;;;;;;;14.57;4.32;;;;;;;5.44;53.89;100014.59;5126389;28;20240;-71
2024/01/26 00:45:01;;;;;;;14.40;4.40;;;;;;;5.44;54.05;100019.84;5126945;28;20062;-70
2024/01/26 00:47:28;;;;;;;11.88;5.45;;;;;;;5.43;53.95;100029.50;5126337;28;20073;-70
2024/01/26 00:49:56;;;;;;;10.35;4.03;;;;;;;5.35;54.22;100026.19;5126614;28;20043;-70
2024/01/26 00:52:22;;;;;;;10.45;5.25;;;;;;;5.40;54.34;100029.59;5126507;28;20070;-70
2024/01/26 00:54:49;;;;;;;9.93;4.00;;;;;;;5.12;54.38;99989.94;5126512;28;20104;-70
2024/01/26 00:57:16;;;;;;;9.48;4.00;;;;;;;5.40;54.34;100034.84;5125714;28;20283;-71
2024/01/26 00:59:43;;;;;;;9.48;4.07;;;;;;;5.43;54.04;100060.19;5126471;28;20061;-70
2024/01/26 01:02:10;;;;;;;12.80;4.20;;;;;;;5.40;54.21;100041.84;5126240;28;20231;-70
2024/01/26 01:04:36;;;;;;;11.60;4.30;;;;;;;5.43;54.27;100037.41;5126181;28;20345;-70
2024/01/26 01:07:05;;;;;;;12.13;3.83;;;;;;;5.28;54.20;100018.50;5125930;28;20052;-70
2024/01/26 01:09:33;;;;;;;12.65;5.35;;;;;;;5.43;54.36;100055.81;5126325;28;20051;-70
2024/01/26 01:12:00;;;;;;;11.32;3.78;;;;;;;5.48;54.24;100053.06;5126254;28;20215;-70
2024/01/26 01:14:28;;;;;;;11.02;4.15;;;;;;;5.55;54.02;100053.78;5126257;28;20055;-71
2024/01/26 01:16:56;;;;;;;10.07;3.78;;;;;;;5.57;53.92;100047.59;5126602;28;20296;-71
2024/01/26 01:19:22;;;;;;;13.68;4.40;;;;;;;5.48;54.35;100053.06;5126053;28;20054;-70
2024/01/26 01:21:49;;;;;;;10.95;4.50;;;;;;;5.49;54.11;100056.56;5126203;28;20104;-70
2024/01/26 01:24:17;;;;;;;9.82;5.45;;;;;;;5.52;54.27;100056.47;5126213;28;20048;-70
2024/01/26 01:26:44;;;;;;;14.00;4.35;;;;;;;5.39;54.67;100059.41;5126197;28;20043;-70
2024/01/26 01:29:11;;;;;;;9.13;4.03;;;;;;;5.47;54.49;100055.72;5126438;28;20230;-70
2024/01/26 01:31:37;;;;;;;8.50;3.65;;;;;;;5.39;54.69;100059.41;5126154;28;20051;-70
2024/01/26 01:34:05;;;;;;;9.98;4.25;;;;;;;5.46;54.41;100054.88;5126081;28;20096;-71
2024/01/26 01:36:31;;;;;;;9.80;3.85;;;;;;;5.44;54.69;100044.38;5126040;28;20063;-72
2024/01/26 01:38:58;;;;;;;7.07;3.67;;;;;;;5.48;54.54;100054.81;5125254;28;20054;-70
2024/01/26 01:41:26;;;;;;;11.45;4.57;;;;;;;5.54;54.46;100054.69;5126137;28;20204;-70
2024/01/26 01:43:57;;;;;;;8.77;4.07;;;;;;;4.73;54.43;99933.00;5125182;28;20032;-70
2024/01/26 01:46:23;;;;;;;8.88;3.92;;;;;;;5.49;54.63;100057.41;5126011;28;20040;-70
2024/01/26 01:48:51;;;;;;;11.70;4.53;;;;;;;5.42;54.87;100055.84;5125982;28;20043;-70
2024/01/26 01:51:18;;;;;;;10.30;4.05;;;;;;;5.44;54.61;100056.66;5128087;28;20040;-70
2024/01/26 01:53:44;;;;;;;14.98;4.32;;;;;;;5.06;54.67;99981.31;5130156;28;20070;-71
2024/01/26 01:56:13;;;;;;;8.48;4.43;;;;;;;5.38;54.86;100052.41;5129615;28;20039;-70
2024/01/26 01:58:42;;;;;;;10.88;4.38;;;;;;;5.23;54.97;100012.47;5129664;28;20043;-70
2024/01/26 02:01:10;;;;;;;11.30;5.13;;;;;;;5.44;54.96;100051.41;5130331;28;20229;-70
2024/01/26 02:03:37;;;;;;;7.65;3.75;;;;;;;5.49;54.87;100051.28;5129466;28;20050;-70
2024/01/26 02:06:04;;;;;;;10.00;4.55;;;;;;;5.41;54.96;100049.72;5129395;28;20097;-70
2024/01/26 02:08:31;;;;;;;10.38;3.97;;;;;;;5.36;55.11;100046.31;5129370;28;20043;-70
2024/01/26 02:10:57;;;;;;;13.07;4.88;;;;;;;5.39;55.05;100053.28;5129307;28;20304;-70
2024/01/26 02:13:24;;;;;;;12.27;4.32;;;;;;;5.39;55.21;100048.03;5129447;28;20084;-70
2024/01/26 02:15:52;;;;;;;8.55;3.58;;;;;;;5.38;55.05;100043.66;5129438;28;20119;-70
2024/01/26 02:18:19;;;;;;;7.95;4.22;;;;;;;5.36;55.23;100055.97;5129457;28;20043;-70
2024/01/26 02:20:46;;;;;;;9.07;4.13;;;;;;;5.36;55.04;100050.72;5128826;28;20039;-70
2024/01/26 02:23:16;;;;;;;10.68;4.30;;;;;;;5.35;55.37;100055.09;5129407;28;20051;-70
2024/01/26 02:25:43;;;;;;;17.15;4.22;;;;;;;5.34;55.33;100049.88;5129001;28;20039;-71
2024/01/26 02:28:10;;;;;;;8.10;3.90;;;;;;;5.33;55.35;100046.41;5129515;28;20085;-70
2024/01/26 02:30:36;;;;;;;14.77;5.13;;;;;;;5.33;55.41;100042.91;5129428;28;20101;-71
2024/01/26 02:33:03;;;;;;;10.15;4.45;;;;;;;5.25;55.26;100031.69;5128791;28;20299;-70
2024/01/26 02:35:30;;;;;;;7.55;4.55;;;;;;;5.33;55.20;100045.53;5128826;28;20043;-70
2024/01/26 02:37:56;;;;;;;10.77;3.95;;;;;;;5.32;55.36;100049.91;5129317;28;20160;-70
2024/01/26 02:40:25;;;;;;;9.73;3.80;;;;;;;5.02;55.44;99995.44;5129010;28;20040;-71
2024/01/26 02:42:52;;;;;;;15.60;4.53;;;;;;;5.35;55.23;100059.50;5128672;28;20031;-71
2024/01/26 02:45:18;;;;;;;10.18;4.72;;;;;;;5.30;55.51;100051.72;5128866;28;20097;-71
2024/01/26 02:47:45;;;;;;;7.75;4.05;;;;;;;5.31;55.38;100057.84;5128564;28;20319;-71
2024/01/26 02:50:12;;;;;;;9.07;3.83;;;;;;;5.27;55.55;100057.03;5128575;28;20043;-71
2024/01/26 02:52:38;;;;;;;11.40;4.25;;;;;;;5.24;55.51;100053.63;5128666;28;20105;-71
2024/01/26 02:55:05;;;;;;;10.90;4.25;;;;;;;5.25;55.63;100045.72;5128938;28;20069;-71
2024/01/26 02:57:33;;;;;;;7.90;3.72;;;;;;;5.27;55.63;100051.78;5128399;28;20040;-71
2024/01/26 03:00:00;;;;;;;12.73;4.85;;;;;;;5.28;55.75;100050.88;5128704;28;20062;-71
2024/01/26 03:02:27;;;;;;;8.75;3.75;;;;;;;5.34;55.45;100052.50;5128196;28;20096;-71
2024/01/26 03:04:53;;;;;;;10.30;3.85;;;;;;;5.34;55.54;100053.38;5128632;28;20035;-71
2024/01/26 03:07:20;;;;;;;13.90;4.82;;;;;;;5.33;55.51;100056.03;5128296;28;20048;-71
2024/01/26 03:09:47;;;;;;;9.43;4.90;;;;;;;5.36;55.43;100062.09;5128143;28;20100;-70
2024/01/26 03:12:14;;;;;;;10.60;4.53;;;;;;;5.35;55.61;100064.75;5128058;28;20088;-71
2024/01/26 03:14:42;;;;;;;14.98;5.18;;;;;;;5.34;55.43;100057.78;5128084;28;20093;-71
2024/01/26 03:17:08;;;;;;;7.72;4.20;;;;;;;5.39;55.32;100062.03;5128562;28;20039;-71
2024/01/26 03:19:36;;;;;;;10.77;4.47;;;;;;;5.30;55.55;100066.63;5128216;28;20039;-70
2024/01/26 03:22:03;;;;;;;8.05;4.38;;;;;;;5.34;55.39;100069.16;5127651;28;20051;-71
2024/01/26 03:24:29;;;;;;;11.15;4.40;;;;;;;5.30;55.44;100072.75;5128148;28;20039;-71
2024/01/26 03:26:56;;;;;;;9.88;3.90;;;;;;;5.29;55.68;100073.66;5128004;28;20043;-71
2024/01/26 03:29:22;;;;;;;11.45;4.90;;;;;;;5.30;55.45;100075.38;5128041;28;20047;-71
2024/01/26 03:31:50;;;;;;;10.23;3.95;;;;;;;5.30;55.35;100077.13;5127754;28;20088;-71
2024/01/26 03:34:17;;;;;;;10.93;4.53;;;;;;;5.33;55.45;100074.44;5126757;28;20040;-71
2024/01/26 03:36:44;;;;;;;8.90;4.40;;;;;;;5.32;55.59;100073.56;5128173;28;20088;-71
2024/01/26 03:39:10;;;;;;;11.35;4.10;;;;;;;5.37;55.34;100071.72;5127562;28;20088;-71
2024/01/26 03:41:40;;;;;;;8.95;3.72;;;;;;;5.36;55.43;100074.38;5127823;28;20242;-71
2024/01/26 03:44:07;;;;;;;8.63;4.35;;;;;;;5.32;55.60;100070.09;5128086;28;20106;-71
2024/01/26 03:46:33;;;;;;;11.15;4.20;;;;;;;5.27;55.55;100082.47;5127438;28;20039;-71
2024/01/26 03:49:03;;;;;;;9.50;4.30;;;;;;;5.30;55.46;100072.75;5127367;28;20303;-71
2024/01/26 03:51:30;;;;;;;11.32;4.45;;;;;;;5.28;55.54;100069.28;5127925;28;20291;-71
2024/01/26 03:53:59;;;;;;;10.32;5.03;;;;;;;5.30;55.60;100066.63;5127705;28;20043;-71
2024/01/26 03:56:25;;;;;;;11.82;5.32;;;;;;;5.30;55.59;100070.13;5128248;28;20202;-71
2024/01/26 03:58:53;;;;;;;12.30;3.88;;;;;;;5.27;55.69;100069.31;5126626;28;20040;-71
2024/01/26 04:01:20;;;;;;;12.05;3.97;;;;;;;5.27;55.79;100069.31;5127735;28;20102;-72
2024/01/26 04:03:47;;;;;;;11.27;4.97;;;;;;;5.22;55.85;100063.31;5127684;28;20074;-71
2024/01/26 04:06:15;;;;;;;12.10;4.47;;;;;;;5.03;55.97;100040.06;5127126;28;20100;-72
2024/01/26 04:08:42;;;;;;;8.38;4.13;;;;;;;5.00;55.77;100036.63;5127348;28;20040;-71
2024/01/26 04:11:08;;;;;;;7.50;3.85;;;;;;;5.27;55.67;100078.06;5127010;28;20043;-71
2024/01/26 04:13:35;;;;;;;10.27;4.25;;;;;;;5.28;55.69;100084.19;5126380;28;20048;-71
2024/01/26 04:16:01;;;;;;;8.48;3.70;;;;;;;5.22;55.84;100082.56;5127179;28;20085;-71
2024/01/26 04:18:28;;;;;;;9.30;3.97;;;;;;;5.21;55.84;100085.22;5126828;28;20043;-71
2024/01/26 04:20:55;;;;;;;11.57;4.22;;;;;;;5.22;55.82;100092.22;5127052;28;20051;-71
2024/01/26 04:23:23;;;;;;;9.10;4.15;;;;;;;5.26;55.71;100093.88;5126981;28;20085;-71
2024/01/26 04:25:49;;;;;;;8.35;3.75;;;;;;;1.73;55.71;99507.56;5126893;28;20043;-72
2024/01/26 04:28:16;;;;;;;7.30;3.83;;;;;;;4.65;56.10;100013.72;5127203;28;20051;-72
2024/01/26 04:30:43;;;;;;;9.82;3.75;;;;;;;5.20;55.87;100092.25;5126711;28;20209;-71
2024/01/26 04:33:10;;;;;;;9.90;4.70;;;;;;;5.22;56.03;100089.59;5125633;28;20038;-71
2024/01/26 04:35:37;;;;;;;8.75;4.47;;;;;;;5.23;55.81;100094.81;5126985;28;20043;-71
2024/01/26 04:38:05;;;;;;;10.52;5.18;;;;;;;5.18;56.03;100098.44;5126569;28;20044;-72
2024/01/26 04:40:33;;;;;;;9.90;4.85;;;;;;;5.16;56.31;100094.97;5126337;28;20219;-72
2024/01/26 04:43:00;;;;;;;13.10;4.18;;;;;;;5.15;56.35;100088.84;5126695;28;20047;-71
2024/01/26 04:45:27;;;;;;;13.73;5.72;;;;;;;5.20;56.17;100097.50;5126033;28;20043;-72
2024/01/26 04:47:53;;;;;;;9.50;3.83;;;;;;;5.25;55.90;100086.88;5126907;28;20039;-71
2024/01/26 04:50:20;;;;;;;12.07;4.70;;;;;;;5.20;56.13;100094.88;5125478;28;20276;-72
2024/01/26 04:52:49;;;;;;;12.70;4.80;;;;;;;5.24;56.10;100096.53;5126511;28;20043;-71
2024/01/26 04:55:16;;;;;;;8.55;4.10;;;;;;;5.23;56.10;100084.28;5125428;28;20039;-72
2024/01/26 04:57:44;;;;;;;12.07;4.82;;;;;;;5.29;56.04;100091.19;5126231;28;20052;-71
2024/01/26 05:00:11;;;;;;;17.58;4.25;;;;;;;5.25;56.09;100092.16;5126758;28;20039;-71
2024/01/26 05:02:38;;;;;;;15.02;4.22;;;;;;;5.29;56.05;100092.03;5126539;28;20050;-71
2024/01/26 05:05:05;;;;;;;15.80;5.13;;;;;;;5.20;56.21;100078.25;5126491;28;20196;-71
2024/01/26 05:07:32;;;;;;;10.52;4.55;;;;;;;5.22;56.07;100094.84;5125843;28;20119;-71
2024/01/26 05:09:59;;;;;;;12.48;5.32;;;;;;;5.21;56.09;100099.22;5126339;28;20035;-71
2024/01/26 05:12:25;;;;;;;7.65;4.00;;;;;;;5.05;55.92;100076.81;5126033;28;20300;-71
2024/01/26 05:14:53;;;;;;;10.60;5.00;;;;;;;5.27;56.09;100109.63;5126284;28;20044;-71
2024/01/26 05:17:20;;;;;;;9.05;3.95;;;;;;;5.22;56.23;100103.59;5126236;28;20054;-72
2024/01/26 05:19:46;;;;;;;10.85;3.83;;;;;;;5.29;56.08;100097.31;5125576;28;20051;-71
2024/01/26 05:22:13;;;;;;;9.82;4.45;;;;;;;5.34;56.07;100098.06;5126224;28;20067;-71
2024/01/26 05:24:40;;;;;;;15.23;5.20;;;;;;;5.33;55.77;100096.34;5126963;28;20284;-71
2024/01/26 05:27:07;;;;;;;15.60;5.40;;;;;;;5.35;55.83;100091.91;5130179;28;20051;-71
2024/01/26 05:29:34;;;;;;;10.55;4.18;;;;;;;4.59;55.83;99956.94;5129472;28;20177;-71
2024/01/26 05:32:02;;;;;;;7.68;3.53;;;;;;;5.30;56.17;100099.03;5130327;28;20040;-72
2024/01/26 05:34:28;;;;;;;11.55;3.97;;;;;;;5.31;56.12;100107.78;5130546;28;20188;-71
2024/01/26 05:36:55;;;;;;;8.82;4.03;;;;;;;5.36;55.90;100104.16;5130231;28;20055;-71
2024/01/26 05:39:22;;;;;;;11.65;5.07;;;;;;;5.33;56.11;100114.75;5129910;28;20051;-71
2024/01/26 05:41:48;;;;;;;11.73;4.32;;;;;;;5.31;56.14;100107.78;5129045;28;20090;-71
2024/01/26 05:44:15;;;;;;;10.45;3.92;;;;;;;4.84;56.30;100053.59;5129836;28;20084;-71
2024/01/26 05:46:42;;;;;;;9.13;4.10;;;;;;;5.31;56.34;100118.28;5130067;28;20081;-71
2024/01/26 05:49:10;;;;;;;11.05;4.00;;;;;;;5.33;56.13;100121.75;5130027;28;20044;-72
2024/01/26 05:51:37;;;;;;;14.07;4.82;;;;;;;5.30;56.41;100112.16;5129403;28;20089;-71
2024/01/26 05:54:03;;;;;;;8.70;3.90;;;;;;;4.97;56.03;100049.84;5129857;28;20050;-71
2024/01/26 05:56:30;;;;;;;9.77;4.25;;;;;;;5.37;56.10;100108.50;5129324;28;20201;-70
2024/01/26 05:58:57;;;;;;;10.13;4.90;;;;;;;5.34;56.12;100112.97;5128979;28;20115;-71
2024/01/26 06:01:24;;;;;;;7.35;4.53;;;;;;;5.32;56.29;100112.13;5129500;28;20226;-69
2024/01/26 06:03:51;;;;;;;7.95;3.60;;;;;;;5.33;56.15;100116.50;5129673;28;20092;-70
2024/01/26 06:06:19;;;;;;;15.57;5.43;;;;;;;5.31;56.36;100118.28;5129491;28;20062;-70
2024/01/26 06:08:45;;;;;;;8.52;3.92;;;;;;;5.33;56.36;100124.38;5129566;28;20052;-70
2024/01/26 06:11:12;;;;;;;8.88;4.38;;;;;;;5.34;56.08;100119.09;5129609;28;20089;-70
2024/01/26 06:13:40;;;;;;;10.70;4.18;;;;;;;5.33;56.24;100112.09;5129490;28;20043;-70
2024/01/26 06:16:07;;;;;;;8.95;3.88;;;;;;;5.34;56.29;100112.97;5129191;28;20047;-69
2024/01/26 06:18:34;;;;;;;6.72;3.92;;;;;;;5.34;56.35;100115.59;5128542;28;20040;-69
2024/01/26 06:21:01;;;;;;;8.38;4.18;;;;;;;5.32;56.42;100105.13;5129650;28;20043;-70
2024/01/26 06:23:29;;;;;;;11.55;4.57;;;;;;;4.38;56.22;99945.13;5129439;28;20058;-70
2024/01/26 06:25:56;;;;;;;12.80;5.32;;;;;;;5.37;56.16;100111.13;5129220;28;20043;-70
2024/01/26 06:28:22;;;;;;;7.38;3.95;;;;;;;5.38;56.20;100107.63;5128926;28;20043;-70
2024/01/26 06:30:49;;;;;;;7.75;4.30;;;;;;;5.39;56.07;100121.63;5127950;28;20085;-69
2024/01/26 06:33:16;;;;;;;9.68;3.72;;;;;;;5.34;56.32;100128.75;5129150;28;20039;-70
2024/01/26 06:35:43;;;;;;;9.32;4.28;;;;;;;5.18;56.37;100096.66;5128576;28;20040;-69
2024/01/26 06:38:10;;;;;;;8.90;5.05;;;;;;;5.21;56.25;100103.63;5128565;28;20067;-69
2024/01/26 06:40:38;;;;;;;9.40;4.18;;;;;;;5.08;56.15;100082.00;5128946;28;20148;-70
2024/01/26 06:43:07;;;;;;;11.32;4.82;;;;;;;5.42;56.15;100140.81;5128972;28;20043;-70
2024/01/26 06:45:34;;;;;;;6.45;4.40;;;;;;;4.98;56.11;100078.69;5129220;27;20049;-70
2024/01/26 06:48:01;;;;;;;10.30;4.25;;;;;;;5.41;56.14;100132.97;5129159;28;20169;-70
2024/01/26 06:50:28;;;;;;;8.05;3.65;;;;;;;5.42;56.14;100143.44;5128712;28;20061;-70
2024/01/26 06:52:55;;;;;;;12.02;4.57;;;;;;;5.45;55.98;100148.66;5128742;28;20052;-69
2024/01/26 06:55:21;;;;;;;7.75;4.35;;;;;;;5.45;55.89;100142.53;5128551;28;20066;-69
2024/01/26 06:57:49;;;;;;;6.88;3.70;;;;;;;5.46;55.96;100141.63;5128859;28;20088;-69
2024/01/26 07:00:17;;;;;;;9.27;4.45;;;;;;;5.30;56.04;100112.16;5128523;28;20062;-70
2024/01/26 07:02:44;;;;;;;11.38;4.60;;;;;;;5.44;56.08;100146.03;5128852;28;20078;-69
2024/01/26 07:05:10;;;;;;;12.52;5.07;;;;;;;5.43;56.23;100146.94;5128137;28;20081;-70
2024/01/26 07:07:37;;;;;;;8.82;4.95;;;;;;;5.50;56.01;100148.53;5128052;28;20059;-70
2024/01/26 07:10:04;;;;;;;11.05;4.35;;;;;;;5.52;56.13;100149.38;5128616;28;20044;-69
2024/01/26 07:12:31;;;;;;;13.38;4.55;;;;;;;5.53;56.02;100155.50;5128641;28;20044;-70
2024/01/26 07:14:59;;;;;;;9.63;4.40;;;;;;;5.53;56.09;100155.50;5127616;28;20066;-70
2024/01/26 07:17:26;;;;;;;9.35;4.18;;;;;;;5.50;56.34;100161.69;5128256;28;20053;-70
2024/01/26 07:19:52;;;;;;;14.15;4.03;;;;;;;5.30;56.49;100124.44;5128150;28;20043;-70
2024/01/26 07:22:19;;;;;;;12.23;4.43;;;;;;;5.51;56.71;100157.28;5128121;28;20040;-71
2024/01/26 07:24:45;;;;;;;10.18;4.88;;;;;;;5.50;56.76;100164.31;5128169;28;20047;-70
2024/01/26 07:27:12;;;;;;;10.63;4.50;;;;;;;5.55;56.70;100172.97;5127762;28;20177;-71
2024/01/26 07:29:39;;;;;;;14.27;5.25;;;;;;;5.28;56.70;100116.59;5127966;28;20288;-70
2024/01/26 07:32:07;;;;;;;9.45;4.70;;;;;;;5.25;56.77;100108.78;5127621;28;20096;-70
2024/01/26 07:34:34;;;;;;;12.68;5.85;;;;;;;5.24;56.65;100098.31;5127636;28;20237;-70
2024/01/26 07:37:00;;;;;;;10.93;4.60;;;;;;;5.63;56.74;100154.41;5127900;28;20284;-70
2024/01/26 07:39:27;;;;;;;12.73;5.72;;;;;;;5.65;56.54;100153.47;5127496;28;20315;-70
2024/01/26 07:41:54;;;;;;;9.02;4.90;;;;;;;5.71;56.16;100147.19;5127877;28;20084;-71
2024/01/26 07:44:20;;;;;;;12.65;4.97;;;;;;;5.75;56.22;100146.22;5126639;28;20040;-70
2024/01/26 07:46:47;;;;;;;16.02;6.63;;;;;;;5.56;56.34;100123.88;5128257;28;20096;-71
2024/01/26 07:49:15;;;;;;;13.48;5.38;;;;;;;5.76;56.02;100151.44;5126558;28;20043;-71
2024/01/26 07:51:41;;;;;;;10.48;5.65;;;;;;;5.58;55.96;100109.78;5127629;28;20055;-70
2024/01/26 07:54:08;;;;;;;13.20;5.78;;;;;;;5.80;56.17;100159.28;5127541;28;20058;-71
2024/01/26 07:56:35;;;;;;;13.00;5.13;;;;;;;5.82;56.23;100154.84;5127197;28;20043;-70
2024/01/26 07:59:02;;;;;;;12.70;5.28;;;;;;;5.48;56.05;100096.91;5127229;28;20035;-70
2024/01/26 08:01:29;;;;;;;11.68;5.07;;;;;;;5.87;56.17;100155.59;5127419;28;20051;-70
2024/01/26 08:03:55;;;;;;;10.30;5.07;;;;;;;5.89;55.94;100149.41;5127432;28;20188;-71
2024/01/26 08:06:23;;;;;;;12.02;4.68;;;;;;;5.86;56.75;100145.97;5127632;28;20063;-70
2024/01/26 08:08:50;;;;;;;13.20;5.15;;;;;;;5.91;56.14;100166.03;5127064;28;20081;-70
2024/01/26 08:11:18;;;;;;;13.57;6.53;;;;;;;5.95;56.21;100158.91;5127178;28;20050;-70
2024/01/26 08:13:45;;;;;;;12.52;5.38;;;;;;;5.97;56.11;100150.09;5127456;28;20238;-71
2024/01/26 08:16:14;;;;;;;14.88;5.97;;;;;;;6.00;56.08;100157.03;5127223;28;20096;-70
2024/01/26 08:18:41;;;;;;;14.00;6.78;;;;;;;6.04;56.25;100156.94;5127120;28;20353;-70
2024/01/26 08:21:08;;;;;;;12.68;6.13;;;;;;;6.01;56.83;100149.09;5126102;28;20218;-70
2024/01/26 08:23:36;;;;;;;14.57;6.82;;;;;;;5.99;57.11;100144.78;5126631;28;20069;-71
2024/01/26 08:26:03;;;;;;;12.02;5.00;;;;;;;6.04;56.75;100145.53;5126828;28;20199;-70
2024/01/26 08:28:30;;;;;;;12.20;5.72;;;;;;;6.05;56.69;100145.50;5125642;28;20088;-71
2024/01/26 08:30:56;;;;;;;17.25;6.32;;;;;;;6.07;57.07;100140.19;5126513;28;20047;-70
2024/01/26 08:33:23;;;;;;;13.80;6.35;;;;;;;6.08;57.15;100132.28;5127037;28;20044;-70
2024/01/26 08:35:50;;;;;;;15.57;5.90;;;;;;;6.11;57.17;100131.34;5126017;28;20040;-70
2024/01/26 08:38:16;;;;;;;12.85;5.85;;;;;;;6.14;58.02;100135.66;5126672;28;20051;-70
2024/01/26 08:40:44;;;;;;;17.00;7.43;;;;;;;6.10;57.87;100130.47;5126627;28;20040;-71
2024/01/26 08:43:11;;;;;;;14.85;7.78;;;;;;;5.40;58.78;100032.22;5126355;28;20169;-70
2024/01/26 08:45:38;;;;;;;13.50;6.13;;;;;;;6.18;58.77;100129.41;5126526;28;20052;-71
2024/01/26 08:48:06;;;;;;;16.25;6.53;;;;;;;6.23;58.06;100133.66;5126511;28;20051;-70
2024/01/26 08:50:33;;;;;;;14.30;6.65;;;;;;;6.01;59.18;100093.84;5126476;28;20039;-70
2024/01/26 08:52:59;;;;;;;16.30;5.95;;;;;;;6.27;58.01;100130.03;5125355;28;20044;-70
2024/01/26 08:55:26;;;;;;;12.93;6.20;;;;;;;6.28;58.57;100131.78;5126349;28;20039;-70
2024/01/26 08:57:54;;;;;;;14.63;5.70;;;;;;;6.33;58.24;100124.63;5126451;28;20039;-70
2024/01/26 09:00:21;;;;;;;12.32;5.85;;;;;;;6.36;58.13;100132.44;5124924;28;20300;-70
2024/01/26 09:02:47;;;;;;;11.02;5.40;;;;;;;6.36;58.50;100131.56;5126725;28;20039;-70
2024/01/26 09:05:15;;;;;;;14.07;6.88;;;;;;;6.36;59.21;100128.94;5125944;28;20032;-70
2024/01/26 09:07:41;;;;;;;23.60;8.45;;;;;;;6.37;59.22;100128.91;5125866;28;20067;-70
2024/01/26 09:10:08;;;;;;;13.23;7.22;;;;;;;6.36;59.88;100127.19;5126303;28;20048;-71
2024/01/26 09:12:35;;;;;;;20.85;6.65;;;;;;;6.35;59.97;100132.47;5126340;28;20043;-71
2024/01/26 09:15:03;;;;;;;18.75;6.32;;;;;;;2.83;58.76;99522.00;5125811;28;20092;-70
2024/01/26 09:17:30;;;;;;;15.90;6.50;;;;;;;6.42;59.76;100136.69;5126122;28;20202;-71
2024/01/26 09:19:57;;;;;;;16.52;6.85;;;;;;;6.46;59.26;100137.47;5126115;28;20084;-70
2024/01/26 09:22:24;;;;;;;11.65;6.38;;;;;;;6.51;58.98;100138.22;5126190;28;20055;-70
2024/01/26 09:24:50;;;;;;;13.93;6.28;;;;;;;6.51;59.48;100143.47;5126136;28;20051;-70
2024/01/26 09:27:17;;;;;;;16.67;6.15;;;;;;;6.57;59.32;100145.97;5125992;28;20051;-71
2024/01/26 09:29:44;;;;;;;12.00;6.30;;;;;;;6.60;59.98;100141.47;5126070;28;20062;-71
2024/01/26 09:32:12;;;;;;;14.63;5.75;;;;;;;6.38;60.07;100106.06;5126005;28;20051;-70
2024/01/26 09:34:38;;;;;;;12.43;6.50;;;;;;;6.60;59.92;100133.56;5125860;28;20044;-70
2024/01/26 09:37:05;;;;;;;16.33;7.47;;;;;;;6.61;60.83;100137.06;5125787;28;20043;-71
2024/01/26 09:39:32;;;;;;;15.60;7.28;;;;;;;6.62;60.89;100130.91;5125998;28;20063;-71
2024/01/26 09:41:59;;;;;;;14.65;6.50;;;;;;;6.63;61.28;100125.59;5126290;28;20090;-71
2024/01/26 09:44:26;;;;;;;11.27;5.82;;;;;;;6.66;61.76;100119.38;5126078;28;20071;-70
2024/01/26 09:46:52;;;;;;;14.80;6.60;;;;;;;6.68;61.55;100118.44;5126206;28;20036;-70
2024/01/26 09:49:23;;;;;;;11.55;7.13;;;;;;;6.72;61.66;100108.66;5124675;28;20067;-70
2024/01/26 09:51:50;;;;;;;15.05;6.10;;;;;;;6.74;61.36;100118.25;5124680;28;20051;-70
2024/01/26 09:54:20;;;;;;;18.38;6.45;;;;;;;6.72;61.76;100112.16;5125767;28;20039;-70
2024/01/26 09:56:48;;;;;;;10.93;6.00;;;;;;;6.77;61.26;100114.66;5125820;28;20039;-70
2024/01/26 09:59:15;;;;;;;11.10;6.20;;;;;;;6.81;61.41;100112.84;5125784;28;20066;-70
2024/01/26 10:01:44;;;;;;;15.05;6.30;;;;;;;6.80;61.83;100109.34;5125631;28;20043;-70
2024/01/26 10:04:11;;;;;;;12.63;5.22;;;;;;;6.79;62.22;100107.59;5125709;28;20096;-70
2024/01/26 10:06:40;;;;;;;12.68;5.85;;;;;;;6.83;62.35;100100.50;5125668;28;20381;-71
2024/01/26 10:09:08;;;;;;;11.85;5.95;;;;;;;6.81;62.45;100095.28;5125383;28;20046;-70
2024/01/26 10:11:35;;;;;;;12.60;5.68;;;;;;;6.85;61.94;100088.16;5126305;28;20043;-70
2024/01/26 10:14:02;;;;;;;14.63;6.55;;;;;;;6.87;61.60;100083.69;5129570;28;20043;-70
2024/01/26 10:16:29;;;;;;;11.30;5.97;;;;;;;6.88;61.93;100077.53;5129616;28;20063;-70
2024/01/26 10:18:55;;;;;;;12.75;5.20;;;;;;;6.91;61.54;100073.03;5129517;28;20040;-70
2024/01/26 10:21:22;;;;;;;14.52;6.70;;;;;;;6.66;62.43;100035.94;5129383;28;20093;-70
2024/01/26 10:23:50;;;;;;;14.07;5.47;;;;;;;6.88;62.11;100066.97;5129379;28;20035;-70
2024/01/26 10:26:17;;;;;;;16.63;5.32;;;;;;;6.76;61.76;100031.28;5129416;28;20040;-70
2024/01/26 10:28:44;;;;;;;12.25;4.72;;;;;;;6.96;61.36;100054.44;5128997;28;20299;-70
2024/01/26 10:31:10;;;;;;;14.32;5.25;;;;;;;7.00;61.99;100058.72;5130231;28;20078;-70
2024/01/26 10:33:40;;;;;;;10.90;5.28;;;;;;;6.92;62.62;100058.94;5129251;28;20044;-70
2024/01/26 10:36:10;;;;;;;9.15;4.78;;;;;;;6.92;62.15;100058.06;5129350;28;20044;-71
2024/01/26 10:38:38;;;;;;;8.00;4.78;;;;;;;6.95;62.27;100050.94;5128812;28;20208;-71
2024/01/26 10:41:07;;;;;;;12.88;5.22;;;;;;;6.96;62.51;100039.50;5128907;28;20043;-71
2024/01/26 10:43:34;;;;;;;11.90;5.97;;;;;;;7.00;62.24;100040.25;5129010;28;20105;-71
2024/01/26 10:46:02;;;;;;;10.15;5.03;;;;;;;6.98;64.68;100035.03;5128841;28;20039;-71
2024/01/26 10:48:30;;;;;;;8.65;5.10;;;;;;;5.67;64.21;99808.91;5128736;28;20204;-71
2024/01/26 10:50:57;;;;;;;11.80;5.03;;;;;;;7.03;64.52;100034.91;5128678;28;20055;-71
2024/01/26 10:53:25;;;;;;;10.15;6.40;;;;;;;7.07;63.62;100024.22;5127581;28;20046;-71
2024/01/26 10:55:53;;;;;;;12.30;5.50;;;;;;;7.11;65.74;100029.41;5128594;28;20043;-71
2024/01/26 10:58:21;;;;;;;11.20;5.43;;;;;;;7.07;65.49;100026.88;5128879;28;20048;-71
2024/01/26 11:00:48;;;;;;;7.53;5.05;;;;;;;7.11;64.54;100018.84;5128441;28;20058;-71
2024/01/26 11:03:15;;;;;;;9.25;5.20;;;;;;;7.12;65.16;100010.91;5128656;28;20043;-71
2024/01/26 11:05:48;;;;;;;10.15;5.18;;;;;;;7.08;66.40;100014.53;5128517;28;20039;-71
2024/01/26 11:08:21;;;;;;;6.90;3.97;;;;;;;7.12;65.51;100005.63;5127924;27;20063;-71
2024/01/26 11:10:50;;;;;;;6.53;5.03;;;;;;;7.13;65.81;100001.22;5128313;28;20058;-71
2024/01/26 11:13:17;;;;;;;12.05;5.40;;;;;;;7.02;65.69;99993.66;5128242;28;20051;-70
2024/01/26 11:15:47;;;;;;;10.93;5.20;;;;;;;6.54;65.78;99903.75;5128029;28;20306;-71
2024/01/26 11:18:22;;;;;;;16.55;6.40;;;;;;;6.90;65.93;99994.88;5128761;28;20051;-71
2024/01/26 11:20:49;;;;;;;17.02;7.38;;;;;;;6.45;65.99;99946.16;5128429;28;20085;-71
2024/01/26 11:23:16;;;;;;;11.75;5.78;;;;;;;6.72;65.84;99991.00;5128096;28;20306;-70
2024/01/26 11:25:44;;;;;;;15.35;5.43;;;;;;;5.97;65.83;99865.94;5128034;27;20039;-71
2024/01/26 11:28:15;;;;;;;13.90;6.07;;;;;;;6.61;66.24;99974.63;5128191;28;20035;-71